Terminal Aerodrome Forecast
Issued by NWS

Home | Current Version | Previous Version | Text Only | Print | Product List | Glossary On
Versions: 1 2 3 4 5 6 7 8 9 10 11 12 13 14 15 16 17 18 19 20 21
000
FTUS42 KTBW 171900 AAA
TAFPIE
TAF AMD
KPIE 171910Z 1719/1818 23006KT P6SM -RA SCT015 BKN060 OVC100
      TEMPO 1719/1721 BKN015
     FM172100 26008KT P6SM VCSH SCT035 BKN100 OVC250
     FM180000 28005KT P6SM SCT020 BKN250
     FM180600 00000KT P6SM FEW020 SCT250
     FM181400 05004KT P6SM SCT030 SCT250=

USA.gov is the U.S. government's official web portal to all federal, state and local government web resources and services.